Time;durP1;ratioP1;P1;durP2;ratioP2;P2;SDS_P1;SDS_P2;PMS_P1;PMS_P2;Temp;Humidity;BMP_temperature;BMP_pressure;BME280_temperature;BME280_humidity;BME280_pressure;Samples;Min_cycle;Max_cycle;Signal;HPM_P1;HPM_P2
2023/12/17 00:01:27;;;;;;;9.53;6.20;;;;;;;1.28;100.00;63049.78;5051825;28;20209;-54
2023/12/17 00:03:53;;;;;;;10.13;6.33;;;;;;;1.39;100.00;63061.72;5051872;28;20255;-54
2023/12/17 00:06:18;;;;;;;11.50;6.97;;;;;;;1.28;100.00;63049.78;5051733;28;20651;-55
2023/12/17 00:08:45;;;;;;;11.97;5.60;;;;;;;1.43;100.00;63066.03;5051723;28;20201;-54
2023/12/17 00:11:11;;;;;;;13.00;7.17;;;;;;;1.39;100.00;63061.16;5051673;28;20193;-54
2023/12/17 00:13:37;;;;;;;10.07;6.47;;;;;;;1.41;100.00;63063.88;5051467;28;20654;-55
2023/12/17 00:16:03;;;;;;;10.90;6.60;;;;;;;1.31;100.00;63050.56;5051712;28;20258;-57
2023/12/17 00:18:29;;;;;;;11.80;7.10;;;;;;;1.33;100.00;63054.66;5033463;28;20245;-54
2023/12/17 00:20:55;;;;;;;10.57;6.10;;;;;;;1.30;100.00;63048.91;5051653;28;20221;-55
2023/12/17 00:23:20;;;;;;;9.70;5.57;;;;;;;1.10;100.00;63030.25;5051411;28;20749;-54
2023/12/17 00:25:47;;;;;;;11.77;5.70;;;;;;;0.95;100.00;63013.47;5051496;28;20194;-54
2023/12/17 00:28:12;;;;;;;8.00;5.40;;;;;;;0.89;100.00;63005.03;5051463;28;20217;-55
2023/12/17 00:30:38;;;;;;;9.83;5.17;;;;;;;0.61;100.00;62975.25;5051414;28;20185;-55
2023/12/17 00:33:04;;;;;;;7.97;5.10;;;;;;;0.55;100.00;62973.16;5051007;28;20209;-54
2023/12/17 00:35:30;;;;;;;9.07;5.17;;;;;;;0.58;100.00;62973.94;5033429;28;20196;-61
2023/12/17 00:37:56;;;;;;;9.50;5.67;;;;;;;0.47;100.00;62962.00;5016856;28;20295;-54
2023/12/17 00:40:22;;;;;;;7.77;5.00;;;;;;;0.38;100.00;62952.81;5051369;28;20258;-53
2023/12/17 00:42:47;;;;;;;8.37;5.67;;;;;;;0.40;100.00;62954.44;5051541;28;20597;-54
2023/12/17 00:45:13;;;;;;;8.97;5.73;;;;;;;0.45;100.00;62957.91;5033614;28;20652;-54
2023/12/17 00:47:39;;;;;;;10.40;5.87;;;;;;;0.31;100.00;62944.69;5051507;28;20216;-54
2023/12/17 00:50:05;;;;;;;8.17;4.73;;;;;;;0.47;100.00;62962.00;5051102;28;20726;-54
2023/12/17 00:52:32;;;;;;;10.17;5.47;;;;;;;0.28;100.00;62944.47;5033259;28;20209;-53
2023/12/17 00:54:57;;;;;;;12.93;5.93;;;;;;;0.23;100.00;62936.03;5033273;28;20391;-54
2023/12/17 00:57:23;;;;;;;8.87;5.30;;;;;;;0.23;100.00;62938.50;5033064;28;20315;-53
2023/12/17 00:59:48;;;;;;;11.30;5.60;;;;;;;0.31;100.00;62945.22;5051030;28;20223;-52
2023/12/17 01:02:13;;;;;;;7.73;5.17;;;;;;;0.19;100.00;62929.22;5033165;28;20640;-53
2023/12/17 01:04:39;;;;;;;8.57;5.13;;;;;;;0.21;100.00;62933.84;5050978;28;20192;-52
2023/12/17 01:07:05;;;;;;;9.30;5.60;;;;;;;0.22;100.00;62935.50;5049850;28;20766;-54
2023/12/17 01:09:30;;;;;;;12.43;6.70;;;;;;;0.21;100.00;62936.34;5050972;28;20618;-53
2023/12/17 01:11:58;;;;;;;16.40;8.50;;;;;;;0.38;100.00;62952.81;5032999;28;20571;-56
2023/12/17 01:14:24;;;;;;;13.60;6.20;;;;;;;0.50;100.00;62965.28;5050517;28;20202;-54
2023/12/17 01:16:50;;;;;;;10.77;6.33;;;;;;;0.42;100.00;62957.16;5051182;28;20217;-53
2023/12/17 01:19:15;;;;;;;17.50;7.80;;;;;;;0.44;100.00;62963.72;5050550;28;20242;-53
2023/12/17 01:21:41;;;;;;;17.30;10.03;;;;;;;0.53;100.00;62969.06;5050438;28;20221;-54
2023/12/17 01:24:07;;;;;;;11.87;7.60;;;;;;;0.55;100.00;62968.19;5050776;28;20189;-54
2023/12/17 01:26:32;;;;;;;15.73;8.63;;;;;;;0.54;100.00;62970.16;5050817;28;20714;-53
2023/12/17 01:28:58;;;;;;;11.43;7.03;;;;;;;0.37;100.00;62951.72;5050565;28;20200;-53
2023/12/17 01:31:24;;;;;;;13.43;7.50;;;;;;;0.44;100.00;62961.25;5050489;28;20193;-54
2023/12/17 01:33:49;;;;;;;13.90;7.77;;;;;;;0.41;100.00;62950.56;5050327;28;20208;-54
2023/12/17 01:36:15;;;;;;;11.03;6.63;;;;;;;0.58;100.00;62974.47;5050620;28;20193;-54
2023/12/17 01:38:41;;;;;;;12.37;7.00;;;;;;;0.53;100.00;62968.50;5050340;28;20209;-53
2023/12/17 01:41:06;;;;;;;12.10;6.33;;;;;;;0.46;100.00;62960.94;5050551;28;20274;-54
2023/12/17 01:43:33;;;;;;;12.53;7.23;;;;;;;0.68;100.00;62985.31;5050657;28;20367;-53
2023/12/17 01:45:59;;;;;;;11.90;6.77;;;;;;;0.67;100.00;62983.66;5032390;28;20190;-55
2023/12/17 01:48:26;;;;;;;13.23;6.67;;;;;;;0.48;100.00;62963.66;5050173;28;20213;-52
2023/12/17 01:50:53;;;;;;;9.53;6.47;;;;;;;0.55;100.00;62970.66;5050217;28;20193;-53
2023/12/17 01:53:19;;;;;;;11.00;6.50;;;;;;;0.53;100.00;62968.50;5049618;28;20267;-54
2023/12/17 01:55:46;;;;;;;11.80;6.03;;;;;;;0.37;100.00;62949.25;5050289;28;20186;-53
2023/12/17 01:58:14;;;;;;;14.07;7.37;;;;;;;0.20;100.00;62932.78;5050157;28;20205;-53
2023/12/17 02:00:40;;;;;;;9.60;5.93;;;;;;;0.01;100.00;62912.75;5032341;28;20213;-52
2023/12/17 02:03:06;;;;;;;11.77;7.03;;;;;;;-0.02;100.00;62910.03;5050013;28;20318;-52
2023/12/17 02:05:32;;;;;;;10.57;6.13;;;;;;;-0.11;100.00;62900.31;5050155;28;20204;-54
2023/12/17 02:07:58;;;;;;;12.30;6.83;;;;;;;-0.11;100.00;62897.84;5049935;28;20209;-54
2023/12/17 02:10:24;;;;;;;9.60;6.07;;;;;;;-0.13;100.00;62898.16;5049991;28;20339;-53
2023/12/17 02:12:50;;;;;;;10.97;6.03;;;;;;;-0.20;100.00;62890.56;5050386;28;20263;-55
2023/12/17 02:15:15;;;;;;;8.67;5.83;;;;;;;-0.33;100.00;62876.50;5049781;28;20210;-54
2023/12/17 02:17:41;;;;;;;9.13;5.40;;;;;;;-0.30;100.00;62879.19;5050045;28;20220;-54
2023/12/17 02:20:07;;;;;;;12.50;6.13;;;;;;;-0.31;100.00;62878.13;5035555;28;20276;-54
2023/12/17 02:22:34;;;;;;;9.30;5.30;;;;;;;-0.07;100.00;62904.63;5053926;28;20240;-57
2023/12/17 02:25:00;;;;;;;9.03;6.17;;;;;;;-0.03;100.00;62908.97;5053408;28;20595;-58
2023/12/17 02:27:26;;;;;;;10.17;5.53;;;;;;;-0.06;100.00;62905.16;5053290;28;20288;-56
2023/12/17 02:29:53;;;;;;;8.00;5.50;;;;;;;0.12;100.00;62924.13;5053291;28;20189;-53
2023/12/17 02:32:23;;;;;;;13.60;5.97;;;;;;;0.08;100.00;62917.31;5053198;28;20317;-55
2023/12/17 02:34:52;;;;;;;9.87;5.43;;;;;;;-0.05;100.00;62906.25;5052989;28;20217;-53
2023/12/17 02:37:18;;;;;;;10.00;5.13;;;;;;;-0.24;100.00;62888.72;5053473;28;20271;-54
2023/12/17 02:39:44;;;;;;;9.67;5.77;;;;;;;-0.24;100.00;62883.75;5053112;28;20247;-55
2023/12/17 02:42:10;;;;;;;11.57;5.77;;;;;;;-0.12;100.00;62898.69;5053169;28;20205;-54
2023/12/17 02:44:35;;;;;;;6.80;4.60;;;;;;;-0.03;100.00;62908.44;5035328;28;20200;-54
2023/12/17 02:47:01;;;;;;;9.87;5.13;;;;;;;-0.03;100.00;62908.97;5052919;28;20217;-56
2023/12/17 02:49:27;;;;;;;8.10;5.43;;;;;;;-0.06;100.00;62902.69;5053108;28;20197;-54
2023/12/17 02:51:55;;;;;;;10.63;5.70;;;;;;;0.05;100.00;62919.00;5052897;28;20253;-56
2023/12/17 02:54:22;;;;;;;8.57;5.50;;;;;;;0.09;100.00;62923.88;5052872;28;20221;-54
2023/12/17 02:56:48;;;;;;;9.13;4.97;;;;;;;-0.01;100.00;62911.13;5053017;28;20212;-55
2023/12/17 02:59:14;;;;;;;10.23;5.47;;;;;;;-0.04;100.00;62907.88;5052694;28;20664;-54
2023/12/17 03:01:43;;;;;;;12.00;4.70;;;;;;;-0.07;100.00;62904.63;5052850;28;20691;-56
2023/12/17 03:04:10;;;;;;;10.67;5.03;;;;;;;0.00;100.00;62912.22;5052632;28;20204;-54
2023/12/17 03:06:37;;;;;;;9.13;5.30;;;;;;;0.00;100.00;62911.69;5052711;28;20201;-55
2023/12/17 03:09:03;;;;;;;9.07;5.10;;;;;;;-0.01;100.00;62910.59;5034820;28;20192;-54
2023/12/17 03:11:29;;;;;;;6.67;4.63;;;;;;;-0.07;100.00;62904.63;5034622;28;20347;-54
2023/12/17 03:13:54;;;;;;;8.50;4.83;;;;;;;-0.11;100.00;62897.84;5052503;28;20212;-55
2023/12/17 03:16:20;;;;;;;8.83;4.53;;;;;;;-0.15;100.00;62895.97;5034827;28;20198;-55
2023/12/17 03:18:46;;;;;;;8.00;4.87;;;;;;;-0.15;100.00;62891.03;5034724;28;20198;-53
2023/12/17 03:21:12;;;;;;;7.53;4.57;;;;;;;-0.17;100.00;62893.81;5034765;28;20212;-53
2023/12/17 03:23:38;;;;;;;8.30;4.47;;;;;;;-0.25;100.00;62884.63;5052330;28;20295;-54
2023/12/17 03:26:03;;;;;;;7.53;4.60;;;;;;;-0.36;100.00;62873.25;5052406;28;20220;-54
2023/12/17 03:28:29;;;;;;;8.17;4.33;;;;;;;-0.40;100.00;62866.44;5052332;28;20213;-54
2023/12/17 03:30:55;;;;;;;7.13;4.53;;;;;;;-0.33;100.00;62875.97;5051281;28;20255;-54
2023/12/17 03:33:20;;;;;;;8.93;3.90;;;;;;;-0.22;100.00;62888.41;5051980;28;20236;-54
2023/12/17 03:35:46;;;;;;;7.93;3.97;;;;;;;-0.23;100.00;62886.78;5051940;28;20186;-55
2023/12/17 03:38:13;;;;;;;7.90;4.47;;;;;;;-0.21;100.00;62888.94;5051574;28;20217;-53
2023/12/17 03:40:39;;;;;;;8.60;4.90;;;;;;;-0.39;100.00;62869.47;5052138;28;20216;-54
2023/12/17 03:43:05;;;;;;;8.97;4.40;;;;;;;-0.34;100.00;62872.94;5052433;28;20240;-58
2023/12/17 03:45:31;;;;;;;8.33;4.13;;;;;;;-0.35;100.00;62871.88;5051888;28;20721;-54
2023/12/17 03:47:57;;;;;;;6.33;3.73;;;;;;;-0.24;100.00;62886.22;5052355;28;20228;-57
2023/12/17 03:50:23;;;;;;;8.07;4.33;;;;;;;-0.18;100.00;62892.72;5051968;28;20202;-52
2023/12/17 03:52:49;;;;;;;6.93;4.10;;;;;;;-0.23;100.00;62887.31;5052102;28;20223;-53
2023/12/17 03:55:15;;;;;;;5.37;3.90;;;;;;;-0.23;100.00;62889.81;5051630;28;20251;-53
2023/12/17 03:57:41;;;;;;;6.60;4.13;;;;;;;-0.13;100.00;62893.19;5051926;28;20216;-53
2023/12/17 04:00:10;;;;;;;7.60;4.63;;;;;;;-0.18;100.00;62892.72;5051544;28;20200;-55
2023/12/17 04:02:36;;;;;;;5.40;3.70;;;;;;;-0.16;100.00;62894.34;5051983;28;20248;-54
2023/12/17 04:05:02;;;;;;;7.93;4.70;;;;;;;-0.15;100.00;62892.97;5051732;28;20216;-53
2023/12/17 04:07:30;;;;;;;6.73;4.07;;;;;;;-0.17;100.00;62891.34;5052092;28;20686;-54
2023/12/17 04:09:57;;;;;;;8.37;4.43;;;;;;;-0.12;100.00;62896.19;5051746;28;20262;-54
2023/12/17 04:12:23;;;;;;;8.60;4.70;;;;;;;-0.23;100.00;62887.31;5033858;28;20209;-57
2023/12/17 04:14:49;;;;;;;6.90;4.33;;;;;;;-0.23;100.00;62889.25;5050212;28;20367;-56
2023/12/17 04:17:15;;;;;;;7.00;3.97;;;;;;;-0.23;100.00;62889.25;5051545;28;20303;-55
2023/12/17 04:19:40;;;;;;;6.23;4.20;;;;;;;-0.17;100.00;62891.34;5051436;28;20189;-55
2023/12/17 04:22:06;;;;;;;8.73;4.10;;;;;;;-0.34;100.00;62877.34;5051365;28;20297;-55
2023/12/17 04:24:32;;;;;;;6.73;3.73;;;;;;;-0.32;100.00;62875.09;5051580;28;20197;-56
2023/12/17 04:26:57;;;;;;;6.60;4.43;;;;;;;-0.46;100.00;62861.88;5051630;28;20205;-54
2023/12/17 04:29:23;;;;;;;6.87;4.27;;;;;;;-0.35;100.00;62871.31;5051492;28;20190;-53
2023/12/17 04:31:48;;;;;;;4.40;3.67;;;;;;;-0.40;100.00;62868.38;5051516;28;20213;-54
2023/12/17 04:34:14;;;;;;;7.73;4.60;;;;;;;-0.28;100.00;62879.44;5051182;28;20581;-53
2023/12/17 04:36:42;;;;;;;6.23;4.10;;;;;;;-0.09;100.00;62904.94;5051530;28;20266;-53
2023/12/17 04:39:09;;;;;;;6.10;3.97;;;;;;;-0.07;100.00;62904.63;5051277;28;20203;-55
2023/12/17 04:41:36;;;;;;;7.00;4.27;;;;;;;-0.14;100.00;62897.06;5051109;28;20201;-56
2023/12/17 04:44:01;;;;;;;7.43;4.50;;;;;;;-0.22;100.00;62888.41;5051156;28;20269;-54
2023/12/17 04:46:28;;;;;;;6.20;3.90;;;;;;;-0.20;100.00;62890.00;5033305;28;20293;-56
2023/12/17 04:48:55;;;;;;;6.27;4.10;;;;;;;-0.17;100.00;62893.28;5051040;28;20624;-55
2023/12/17 04:51:22;;;;;;;6.70;4.13;;;;;;;-0.38;100.00;62873.56;5051228;28;20247;-55
2023/12/17 04:53:48;;;;;;;6.70;4.13;;;;;;;-0.42;100.00;62866.22;5033002;28;20217;-55
2023/12/17 04:56:14;;;;;;;7.60;4.10;;;;;;;-0.46;100.00;62859.97;5033281;28;20201;-55
2023/12/17 04:58:46;;;;;;;7.07;4.27;;;;;;;-0.35;100.00;62876.28;5065252;22;20322;-53
2023/12/17 05:01:11;;;;;;;6.77;4.20;;;;;;;-0.26;100.00;62884.06;5071089;28;20589;-54
2023/12/17 05:03:38;;;;;;;8.77;5.13;;;;;;;-0.26;100.00;62881.59;5051561;28;20210;-53
2023/12/17 05:06:05;;;;;;;6.93;4.47;;;;;;;-0.31;100.00;62881.16;5050933;28;20186;-55
2023/12/17 05:08:31;;;;;;;7.47;4.47;;;;;;;-0.32;100.00;62877.56;5050644;28;20243;-62
2023/12/17 05:10:56;;;;;;;6.13;4.60;;;;;;;-0.24;100.00;62885.69;5050783;28;20189;-54
2023/12/17 05:13:22;;;;;;;9.50;4.97;;;;;;;-0.22;100.00;62890.31;5050832;28;20209;-54
2023/12/17 05:15:47;;;;;;;7.70;4.10;;;;;;;-0.34;100.00;62875.41;5050869;28;20647;-53
2023/12/17 05:18:13;;;;;;;8.23;4.67;;;;;;;-0.36;100.00;62873.25;5050256;28;20257;-54
2023/12/17 05:20:39;;;;;;;8.87;5.23;;;;;;;-0.15;100.00;62895.44;5048694;28;20205;-54
2023/12/17 05:23:05;;;;;;;7.63;4.60;;;;;;;-0.20;100.00;62890.00;5049952;28;20244;-59
2023/12/17 05:25:30;;;;;;;8.00;5.33;;;;;;;-0.18;100.00;62892.72;5050506;28;20197;-54
2023/12/17 05:27:56;;;;;;;5.80;4.17;;;;;;;-0.15;100.00;62895.44;5050400;28;20214;-61
2023/12/17 05:30:22;;;;;;;7.20;4.63;;;;;;;-0.12;100.00;62896.19;5050607;28;20201;-62
2023/12/17 05:32:49;;;;;;;6.07;4.43;;;;;;;-0.25;100.00;62882.69;5050294;28;20247;-55
2023/12/17 05:35:14;;;;;;;6.70;4.07;;;;;;;-0.22;100.00;62887.84;5050482;28;20205;-54
2023/12/17 05:37:40;;;;;;;7.33;4.50;;;;;;;-0.44;100.00;62864.06;5050505;28;20209;-55
2023/12/17 05:40:06;;;;;;;5.87;4.30;;;;;;;-0.53;100.00;62854.88;5050303;28;20650;-55
2023/12/17 05:42:32;;;;;;;8.57;4.57;;;;;;;-0.49;100.00;62859.19;5049922;28;20220;-54
2023/12/17 05:44:58;;;;;;;8.47;4.63;;;;;;;-0.46;100.00;62861.88;5050403;28;20579;-56
2023/12/17 05:47:23;;;;;;;8.53;4.60;;;;;;;-0.63;100.00;62844.06;5050261;28;20646;-56
2023/12/17 05:49:49;;;;;;;7.63;4.63;;;;;;;-0.72;100.00;62831.84;5050846;28;20269;-54
2023/12/17 05:52:15;;;;;;;6.43;4.30;;;;;;;-0.75;100.00;62830.53;5050307;28;20210;-54
2023/12/17 05:54:43;;;;;;;6.43;4.23;;;;;;;-0.65;100.00;62841.88;5053328;28;20223;-53
2023/12/17 05:57:09;;;;;;;6.93;4.53;;;;;;;-0.66;100.00;62840.25;5053746;28;20212;-54
2023/12/17 05:59:35;;;;;;;10.40;5.50;;;;;;;-0.67;100.00;62839.19;5054416;28;20186;-54
2023/12/17 06:02:01;;;;;;;8.30;5.70;;;;;;;-0.70;100.00;62838.94;5053499;28;20214;-54
2023/12/17 06:04:27;;;;;;;7.53;5.23;;;;;;;-0.61;100.00;62843.75;5053727;28;20219;-55
2023/12/17 06:06:55;;;;;;;8.43;4.63;;;;;;;-0.83;100.00;62819.41;5053532;28;20710;-54
2023/12/17 06:09:21;;;;;;;6.87;4.60;;;;;;;-0.69;100.00;62835.09;5053631;28;20193;-55
2023/12/17 06:11:46;;;;;;;11.13;5.63;;;;;;;-0.56;100.00;62846.66;5053363;28;20217;-54
2023/12/17 06:14:12;;;;;;;10.97;5.80;;;;;;;-0.61;100.00;62848.69;5053319;28;20278;-53
2023/12/17 06:16:41;;;;;;;10.43;5.40;;;;;;;-0.37;100.00;62869.16;5053182;28;20721;-54
2023/12/17 06:19:07;;;;;;;12.27;6.57;;;;;;;-0.30;100.00;62879.19;5053238;28;20220;-54
2023/12/17 06:21:33;;;;;;;11.37;6.17;;;;;;;-0.53;100.00;62857.34;5053214;28;20272;-54
2023/12/17 06:23:58;;;;;;;6.97;5.00;;;;;;;-0.52;100.00;62855.94;5053392;28;20228;-54
2023/12/17 06:26:24;;;;;;;8.93;4.87;;;;;;;-0.22;100.00;62887.84;5053145;28;20211;-54
2023/12/17 06:28:50;;;;;;;8.73;4.70;;;;;;;-0.24;100.00;62891.19;5053172;28;20660;-55
2023/12/17 06:31:17;;;;;;;8.77;4.53;;;;;;;-0.22;100.00;62890.31;5053061;28;20191;-54
2023/12/17 06:33:42;;;;;;;10.17;4.70;;;;;;;-0.21;100.00;62888.94;5053190;28;20225;-55
2023/12/17 06:36:08;;;;;;;8.87;5.53;;;;;;;-0.14;100.00;62896.50;5052945;28;20243;-53
2023/12/17 06:38:34;;;;;;;9.07;5.17;;;;;;;-0.11;100.00;62897.28;5052951;28;20643;-54
2023/12/17 06:40:59;;;;;;;7.33;4.83;;;;;;;-0.27;100.00;62885.47;5035311;28;20196;-56
2023/12/17 06:43:25;;;;;;;9.23;5.70;;;;;;;-0.24;100.00;62883.75;5052943;28;20232;-55
2023/12/17 06:45:51;;;;;;;8.77;5.63;;;;;;;-0.06;100.00;62903.25;5052895;28;20194;-55
2023/12/17 06:48:18;;;;;;;10.33;5.50;;;;;;;-0.11;100.00;62900.31;5034942;28;20217;-54
2023/12/17 06:50:43;;;;;;;7.23;4.60;;;;;;;0.15;100.00;62925.44;5052817;28;20185;-54
2023/12/17 06:53:15;;;;;;;9.37;6.43;;;;;;;0.22;100.00;62932.47;5052795;28;20208;-55
2023/12/17 06:55:43;;;;;;;10.23;6.40;;;;;;;0.18;100.00;62933.09;5035204;28;20204;-55
2023/12/17 06:58:09;;;;;;;7.93;5.37;;;;;;;-0.03;100.00;62908.44;5052679;28;20211;-55
2023/12/17 07:00:35;;;;;;;8.40;5.40;;;;;;;-0.04;100.00;62910.34;5052920;28;20281;-54
2023/12/17 07:03:02;;;;;;;8.27;5.30;;;;;;;-0.07;100.00;62904.63;5034750;28;20223;-54
2023/12/17 07:05:28;;;;;;;12.10;5.33;;;;;;;0.24;100.00;62939.59;5051361;28;20247;-53
2023/12/17 07:07:53;;;;;;;9.63;5.23;;;;;;;0.32;100.00;62946.31;5034590;28;20201;-54
2023/12/17 07:10:20;;;;;;;8.00;4.97;;;;;;;0.54;100.00;62969.59;5052585;28;20182;-55
2023/12/17 07:12:46;;;;;;;7.93;5.00;;;;;;;0.67;100.00;62983.66;5052318;28;20267;-54
2023/12/17 07:15:12;;;;;;;9.60;5.90;;;;;;;0.63;100.00;62979.34;5052372;28;20707;-54
2023/12/17 07:17:38;;;;;;;6.73;4.20;;;;;;;0.61;100.00;62977.16;5034595;28;20197;-54
2023/12/17 07:20:04;;;;;;;7.77;4.43;;;;;;;1.07;100.00;63027.00;5052805;28;20201;-58
2023/12/17 07:22:30;;;;;;;9.07;5.23;;;;;;;0.73;100.00;62990.16;5034397;28;20703;-56
2023/12/17 07:24:55;;;;;;;9.60;5.30;;;;;;;0.89;100.00;63009.44;5052810;28;20192;-55
2023/12/17 07:27:21;;;;;;;10.27;5.20;;;;;;;1.22;100.00;63043.28;5034354;28;20221;-55
2023/12/17 07:29:46;;;;;;;7.27;5.07;;;;;;;1.14;100.00;63034.06;5052508;28;20204;-55
2023/12/17 07:32:12;;;;;;;11.50;5.57;;;;;;;5.05;100.00;63454.56;5052179;28;20703;-54
2023/12/17 07:34:37;;;;;;;7.10;5.03;;;;;;;3.55;100.00;63296.44;5052143;28;20218;-55
2023/12/17 07:37:03;;;;;;;11.33;5.43;;;;;;;2.88;100.00;63221.72;5034226;28;20296;-56
2023/12/17 07:39:28;;;;;;;9.07;5.80;;;;;;;2.69;100.00;63201.09;5052023;28;20193;-55
2023/12/17 07:41:54;;;;;;;7.73;5.40;;;;;;;2.44;100.00;63172.03;5051547;28;20651;-54
2023/12/17 07:44:20;;;;;;;9.97;5.50;;;;;;;2.05;100.00;63130.25;5052348;28;20640;-55
2023/12/17 07:46:45;;;;;;;9.67;5.63;;;;;;;2.23;100.00;63149.78;5052029;28;20295;-54
2023/12/17 07:49:11;;;;;;;7.90;5.53;;;;;;;2.30;100.00;63159.31;5052182;28;20205;-55
2023/12/17 07:51:38;;;;;;;8.73;5.33;;;;;;;2.17;100.00;63145.75;5052050;28;20223;-55
2023/12/17 07:54:07;;;;;;;8.10;6.00;;;;;;;2.19;100.00;63147.91;5051979;28;20566;-53
2023/12/17 07:56:33;;;;;;;9.03;5.97;;;;;;;2.11;100.00;63136.75;5051711;28;20281;-59
2023/12/17 07:58:58;;;;;;;9.77;6.07;;;;;;;1.74;100.00;63099.09;5051757;28;20685;-55
2023/12/17 08:01:31;;;;;;;8.10;5.67;;;;;;;2.01;100.00;63125.91;5051808;28;20189;-55
2023/12/17 08:03:57;;;;;;;9.40;6.30;;;;;;;2.25;100.00;63153.88;5051555;28;20220;-55
2023/12/17 08:06:23;;;;;;;9.60;6.63;;;;;;;2.27;100.00;63154.13;5051767;28;20181;-58
2023/12/17 08:08:50;;;;;;;10.33;5.50;;;;;;;4.15;100.00;63359.16;5052005;28;20293;-55
2023/12/17 08:11:17;;;;;;;12.97;8.70;;;;;;;4.74;100.00;63422.81;5033922;28;20202;-55
2023/12/17 08:13:44;;;;;;;9.97;6.67;;;;;;;3.78;100.00;63324.47;5051520;28;20813;-57
2023/12/17 08:16:10;;;;;;;9.87;6.27;;;;;;;3.21;100.00;63257.56;5051099;28;20274;-55
2023/12/17 08:18:36;;;;;;;9.63;6.20;;;;;;;2.95;100.00;63229.34;5051043;28;20281;-55
2023/12/17 08:21:02;;;;;;;9.37;6.77;;;;;;;2.91;100.00;63222.50;5050069;28;20250;-54
2023/12/17 08:23:28;;;;;;;9.97;5.87;;;;;;;2.76;100.00;63209.25;5051429;28;20255;-56
2023/12/17 08:25:54;;;;;;;7.93;5.33;;;;;;;2.53;100.00;63184.81;5051480;28;20278;-56
2023/12/17 08:28:21;;;;;;;8.97;5.43;;;;;;;2.42;100.00;63172.34;5051407;28;20241;-55
2023/12/17 08:30:48;;;;;;;10.43;6.37;;;;;;;1.86;100.00;63111.59;5051302;28;20182;-53
2023/12/17 08:33:15;;;;;;;8.60;5.03;;;;;;;2.10;100.00;63135.66;5051234;28;20208;-54
2023/12/17 08:35:45;;;;;;;8.63;5.60;;;;;;;1.86;100.00;63111.59;5033364;28;20681;-54
2023/12/17 08:38:11;;;;;;;7.20;5.20;;;;;;;1.70;100.00;63094.75;5033234;28;20213;-53
2023/12/17 08:40:38;;;;;;;9.23;5.63;;;;;;;1.78;100.00;63102.91;5033266;28;20676;-55
2023/12/17 08:43:12;;;;;;;13.13;6.23;;;;;;;1.23;100.00;63041.34;5051097;28;20333;-53
2023/12/17 08:45:38;;;;;;;10.13;6.43;;;;;;;1.35;100.00;63054.88;5051068;28;20170;-52
2023/12/17 08:48:05;;;;;;;9.20;5.47;;;;;;;1.27;100.00;63048.16;5051032;28;20701;-56
2023/12/17 08:50:30;;;;;;;9.87;6.03;;;;;;;1.36;100.00;63058.44;5049685;28;20276;-54
2023/12/17 08:52:56;;;;;;;10.93;6.50;;;;;;;1.46;100.00;63068.75;5033071;28;20304;-55
2023/12/17 08:55:21;;;;;;;10.50;6.10;;;;;;;1.25;100.00;63046.00;5050925;28;20320;-54
2023/12/17 08:57:47;;;;;;;8.20;5.13;;;;;;;1.09;100.00;63028.66;5051008;28;20288;-53
2023/12/17 09:00:16;;;;;;;8.50;6.07;;;;;;;1.25;100.00;63046.50;5033120;28;20193;-54
2023/12/17 09:02:41;;;;;;;10.80;6.93;;;;;;;1.57;100.00;63081.22;5032779;28;20377;-54
2023/12/17 09:05:08;;;;;;;13.17;7.10;;;;;;;1.48;100.00;63070.91;5050438;28;20188;-55
2023/12/17 09:07:40;;;;;;;12.03;6.83;;;;;;;1.57;100.00;63078.75;5032412;28;20219;-56
2023/12/17 09:10:05;;;;;;;10.30;6.50;;;;;;;1.75;100.00;63102.13;5050739;28;20189;-55
2023/12/17 09:12:31;;;;;;;11.73;6.90;;;;;;;1.63;100.00;63087.72;5050530;28;20228;-56
2023/12/17 09:14:56;;;;;;;8.93;5.93;;;;;;;1.66;100.00;63090.97;5050427;28;20655;-55
2023/12/17 09:17:22;;;;;;;11.97;6.33;;;;;;;1.44;100.00;63066.56;5050735;28;20256;-56
2023/12/17 09:19:48;;;;;;;11.10;6.60;;;;;;;1.42;100.00;63064.94;5032876;28;20246;-54
2023/12/17 09:22:14;;;;;;;8.63;6.23;;;;;;;1.41;100.00;63063.88;5032852;28;20213;-56
2023/12/17 09:24:40;;;;;;;10.10;6.53;;;;;;;1.73;100.00;63097.47;5032979;28;20208;-55
2023/12/17 09:27:05;;;;;;;9.33;5.87;;;;;;;1.80;100.00;63105.59;5050621;28;20216;-54
2023/12/17 09:29:32;;;;;;;8.57;5.93;;;;;;;1.54;100.00;63075.47;5053418;28;20197;-54
2023/12/17 09:31:57;;;;;;;10.40;6.23;;;;;;;5.50;100.00;63502.47;5053911;28;20209;-55
2023/12/17 09:34:23;;;;;;;18.20;6.33;;;;;;;5.70;100.00;63527.28;5054269;28;20221;-56
2023/12/17 09:36:48;;;;;;;10.77;5.60;;;;;;;7.60;100.00;63730.31;5053907;28;20215;-54
2023/12/17 09:39:14;;;;;;;7.93;5.80;;;;;;;5.70;91.39;63522.31;5053864;28;20201;-54
2023/12/17 09:41:41;;;;;;;8.93;4.87;;;;;;;3.88;96.65;63327.88;5053957;28;20217;-55
2023/12/17 09:44:08;;;;;;;7.17;5.20;;;;;;;3.25;100.00;63259.44;5054062;28;20193;-55
2023/12/17 09:46:35;;;;;;;7.77;4.60;;;;;;;3.01;100.00;63230.88;5053849;28;20200;-55
2023/12/17 09:49:01;;;;;;;6.93;5.10;;;;;;;2.47;100.00;63178.31;5035877;28;20197;-55
2023/12/17 09:51:28;;;;;;;9.43;5.90;;;;;;;2.16;100.00;63144.66;5053796;28;20199;-55
2023/12/17 09:53:57;;;;;;;10.40;7.30;;;;;;;1.69;100.00;63094.22;5035676;28;20219;-55
2023/12/17 09:56:23;;;;;;;10.10;6.50;;;;;;;1.38;100.00;63060.06;5053724;28;20269;-55
2023/12/17 09:58:49;;;;;;;10.57;6.20;;;;;;;1.32;100.00;63053.56;5053820;28;20201;-55
2023/12/17 10:01:15;;;;;;;8.37;5.63;;;;;;;1.46;100.00;63071.22;5053826;28;20189;-54
2023/12/17 10:03:40;;;;;;;9.73;6.80;;;;;;;1.42;100.00;63064.94;5053701;28;20310;-55
2023/12/17 10:06:06;;;;;;;11.13;7.37;;;;;;;1.61;100.00;63083.06;5035868;28;20599;-55
2023/12/17 10:08:32;;;;;;;8.87;6.33;;;;;;;1.47;100.00;63067.91;5053558;28;20225;-57
2023/12/17 10:10:58;;;;;;;8.30;5.57;;;;;;;1.76;100.00;63101.25;5053315;28;20555;-56
2023/12/17 10:13:23;;;;;;;12.97;6.23;;;;;;;1.59;100.00;63080.91;5053440;28;20699;-55
2023/12/17 10:15:54;;;;;;;8.50;5.70;;;;;;;1.68;100.00;63093.13;5053318;28;20283;-53
2023/12/17 10:18:21;;;;;;;10.60;6.77;;;;;;;1.66;100.00;63093.44;5053091;28;20262;-56
2023/12/17 10:20:47;;;;;;;8.00;5.70;;;;;;;1.75;100.00;63099.66;5053291;28;20190;-54
2023/12/17 10:23:14;;;;;;;12.10;6.63;;;;;;;1.63;100.00;63085.25;5053161;28;20210;-54
2023/12/17 10:25:40;;;;;;;9.33;5.93;;;;;;;1.32;100.00;63054.09;5035227;28;20185;-54
2023/12/17 10:28:08;;;;;;;10.33;6.07;;;;;;;1.32;100.00;63053.56;5052816;28;20221;-56
2023/12/17 10:30:35;;;;;;;11.17;6.77;;;;;;;1.27;100.00;63048.16;5053031;28;20628;-52
2023/12/17 10:33:02;;;;;;;11.13;5.80;;;;;;;1.29;100.00;63050.31;5053037;28;20241;-52
2023/12/17 10:35:29;;;;;;;11.17;7.10;;;;;;;1.17;100.00;63035.34;5053030;28;20236;-54
2023/12/17 10:38:05;;;;;;;10.93;6.23;;;;;;;1.39;100.00;63061.72;5052820;28;20679;-53
2023/12/17 10:40:32;;;;;;;9.60;5.83;;;;;;;1.29;100.00;63050.88;5052944;28;20636;-53
2023/12/17 10:42:59;;;;;;;12.50;7.07;;;;;;;1.73;100.00;63095.53;5052763;28;20213;-53
2023/12/17 10:45:25;;;;;;;9.03;5.97;;;;;;;1.65;100.00;63084.94;5052351;28;20726;-56
2023/12/17 10:47:54;;;;;;;10.93;6.97;;;;;;;1.57;100.00;63078.75;5051355;28;20225;-56
2023/12/17 10:50:20;;;;;;;10.17;6.30;;;;;;;1.61;100.00;63083.06;5051715;28;20299;-55
2023/12/17 10:52:47;;;;;;;9.60;5.53;;;;;;;1.95;100.00;63121.34;5051698;28;20270;-62
2023/12/17 10:55:14;;;;;;;8.13;5.63;;;;;;;2.18;100.00;63143.81;5052084;28;20213;-54
2023/12/17 10:58:01;;;;;;;10.03;5.97;;;;;;;1.97;100.00;63121.03;5051735;28;20220;-55
2023/12/17 11:00:30;;;;;;;10.33;6.07;;;;;;;1.73;100.00;63097.47;5052101;28;20194;-56
2023/12/17 11:02:59;;;;;;;11.03;5.80;;;;;;;1.68;100.00;63092.59;5052360;28;20220;-59
2023/12/17 11:05:25;;;;;;;9.47;6.10;;;;;;;1.26;100.00;63047.59;5034212;28;20340;-56
2023/12/17 11:07:50;;;;;;;9.90;5.93;;;;;;;1.09;100.00;63029.16;5053066;28;20304;-55
2023/12/17 11:10:17;;;;;;;9.50;6.20;;;;;;;1.85;100.00;63111.03;5052945;28;20630;-54
2023/12/17 11:12:45;;;;;;;9.40;5.77;;;;;;;1.78;100.00;63102.91;5052424;28;20210;-55
2023/12/17 11:15:12;;;;;;;10.53;6.87;;;;;;;1.57;100.00;63080.69;5052335;28;20217;-54
2023/12/17 11:17:38;;;;;;;11.43;7.30;;;;;;;1.56;100.00;63080.13;5052038;28;20216;-54
2023/12/17 11:20:05;;;;;;;9.77;6.17;;;;;;;1.43;100.00;63063.56;5052545;28;20197;-54
2023/12/17 11:22:37;;;;;;;10.07;6.30;;;;;;;1.51;100.00;63074.16;5052276;28;20209;-56